Nassau, New York
Current Conditions -  °F | °C
As of 9:15 AM on Sunday 25 Jan 2015 (Local Time) from KPSF Reporting Station
Unknown Precip Unknown Precip  
Wind Chill: 10°   Ceiling: 3400
Heat Index: 26°   Visibility: 2.5mi
Dew Point: 16°   Wind: 26mph
Humidity: 66%   Direction: 290°WNW
Pressure: 29.58"   Gusts: 43mph
Location:  42.52°N, 73.61°W
Report Text: KPSF 251415Z AUTO 29023G37KT 2 1/2SM UP FEW014 OVC034 M03/M09 A2958 RMK AO2 PK WND 27038/1356 VIS 1 1/2V5 P0000 T10331089
Loading
Personal Weather Stations






























Interactive Weather Map New forecast layout! Learn more

10-Day Weather Forecast

Advertisements
Track Severe Weather on mobile